sensor_id;sensor_type;location;lat;lon;timestamp;temperature;humidity
20005;DHT22;69160;45.498;-73.582;2023-05-09T00:01:36;22.00;50.80
20005;DHT22;69160;45.498;-73.582;2023-05-09T00:04:04;22.00;50.90
20005;DHT22;69160;45.498;-73.582;2023-05-09T00:06:30;22.00;50.80
20005;DHT22;69160;45.498;-73.582;2023-05-09T00:08:57;22.00;50.80
20005;DHT22;69160;45.498;-73.582;2023-05-09T00:11:23;22.00;50.80
20005;DHT22;69160;45.498;-73.582;2023-05-09T00:13:50;22.00;50.80
20005;DHT22;69160;45.498;-73.582;2023-05-09T00:16:17;22.00;50.90
20005;DHT22;69160;45.498;-73.582;2023-05-09T00:18:46;22.00;51.00
20005;DHT22;69160;45.498;-73.582;2023-05-09T00:21:12;22.00;50.90
20005;DHT22;69160;45.498;-73.582;2023-05-09T00:23:38;22.00;50.80
20005;DHT22;69160;45.498;-73.582;2023-05-09T00:26:04;22.00;50.90
20005;DHT22;69160;45.498;-73.582;2023-05-09T00:28:31;22.00;50.90
20005;DHT22;69160;45.498;-73.582;2023-05-09T00:30:57;22.00;51.00
20005;DHT22;69160;45.498;-73.582;2023-05-09T00:33:23;22.00;51.00
20005;DHT22;69160;45.498;-73.582;2023-05-09T00:35:52;22.00;51.10
20005;DHT22;69160;45.498;-73.582;2023-05-09T00:38:19;22.00;51.00
20005;DHT22;69160;45.498;-73.582;2023-05-09T00:40:45;22.00;51.00
20005;DHT22;69160;45.498;-73.582;2023-05-09T00:43:11;22.00;51.00
20005;DHT22;69160;45.498;-73.582;2023-05-09T00:45:37;22.00;51.00
20005;DHT22;69160;45.498;-73.582;2023-05-09T00:48:04;22.00;51.00
20005;DHT22;69160;45.498;-73.582;2023-05-09T00:50:30;22.00;50.90
20005;DHT22;69160;45.498;-73.582;2023-05-09T00:52:57;22.00;50.90
20005;DHT22;69160;45.498;-73.582;2023-05-09T00:55:23;22.00;51.00
20005;DHT22;69160;45.498;-73.582;2023-05-09T00:57:49;22.00;51.00
20005;DHT22;69160;45.498;-73.582;2023-05-09T01:00:16;22.00;50.90
20005;DHT22;69160;45.498;-73.582;2023-05-09T01:02:45;22.00;51.00
20005;DHT22;69160;45.498;-73.582;2023-05-09T01:05:12;22.00;51.00
20005;DHT22;69160;45.498;-73.582;2023-05-09T01:07:49;22.00;50.90
20005;DHT22;69160;45.498;-73.582;2023-05-09T01:10:34;22.00;51.00
20005;DHT22;69160;45.498;-73.582;2023-05-09T01:18:24;22.00;51.10
20005;DHT22;69160;45.498;-73.582;2023-05-09T01:21:07;22.00;51.10
20005;DHT22;69160;45.498;-73.582;2023-05-09T01:27:14;22.00;51.20
20005;DHT22;69160;45.498;-73.582;2023-05-09T01:29:55;22.00;51.20
20005;DHT22;69160;45.498;-73.582;2023-05-09T01:32:29;22.00;51.20
20005;DHT22;69160;45.498;-73.582;2023-05-09T01:35:00;22.00;51.20
20005;DHT22;69160;45.498;-73.582;2023-05-09T01:37:32;22.00;51.20
20005;DHT22;69160;45.498;-73.582;2023-05-09T01:40:05;22.00;51.20
20005;DHT22;69160;45.498;-73.582;2023-05-09T01:42:43;21.90;51.00
20005;DHT22;69160;45.498;-73.582;2023-05-09T01:45:11;22.00;51.20
20005;DHT22;69160;45.498;-73.582;2023-05-09T01:47:39;22.00;51.10
20005;DHT22;69160;45.498;-73.582;2023-05-09T01:50:08;22.00;51.10
20005;DHT22;69160;45.498;-73.582;2023-05-09T01:52:36;22.00;51.10
20005;DHT22;69160;45.498;-73.582;2023-05-09T01:55:04;22.00;51.10
20005;DHT22;69160;45.498;-73.582;2023-05-09T01:57:32;22.00;51.10
20005;DHT22;69160;45.498;-73.582;2023-05-09T01:59:59;22.00;51.20
20005;DHT22;69160;45.498;-73.582;2023-05-09T02:02:27;22.00;51.10
20005;DHT22;69160;45.498;-73.582;2023-05-09T02:04:56;22.00;51.20
20005;DHT22;69160;45.498;-73.582;2023-05-09T02:07:23;22.00;51.10
20005;DHT22;69160;45.498;-73.582;2023-05-09T02:09:51;22.00;51.10
20005;DHT22;69160;45.498;-73.582;2023-05-09T02:12:24;21.90;51.00
20005;DHT22;69160;45.498;-73.582;2023-05-09T02:14:50;22.00;51.00
20005;DHT22;69160;45.498;-73.582;2023-05-09T02:17:16;21.90;51.00
20005;DHT22;69160;45.498;-73.582;2023-05-09T02:19:44;21.90;51.00
20005;DHT22;69160;45.498;-73.582;2023-05-09T02:22:11;21.90;50.90
20005;DHT22;69160;45.498;-73.582;2023-05-09T02:24:38;21.90;50.90
20005;DHT22;69160;45.498;-73.582;2023-05-09T02:27:05;21.90;51.50
20005;DHT22;69160;45.498;-73.582;2023-05-09T02:29:35;21.90;50.80
20005;DHT22;69160;45.498;-73.582;2023-05-09T02:32:11;21.90;50.80
20005;DHT22;69160;45.498;-73.582;2023-05-09T02:34:39;21.90;50.80
20005;DHT22;69160;45.498;-73.582;2023-05-09T02:37:07;21.90;50.70
20005;DHT22;69160;45.498;-73.582;2023-05-09T02:39:34;21.90;50.70
20005;DHT22;69160;45.498;-73.582;2023-05-09T02:42:12;21.90;50.60
20005;DHT22;69160;45.498;-73.582;2023-05-09T02:44:38;22.00;50.80
20005;DHT22;69160;45.498;-73.582;2023-05-09T02:47:06;21.90;50.70
20005;DHT22;69160;45.498;-73.582;2023-05-09T02:49:32;21.90;50.70
20005;DHT22;69160;45.498;-73.582;2023-05-09T02:51:59;21.90;50.60
20005;DHT22;69160;45.498;-73.582;2023-05-09T02:54:26;21.90;50.60
20005;DHT22;69160;45.498;-73.582;2023-05-09T02:56:52;21.90;50.60
20005;DHT22;69160;45.498;-73.582;2023-05-09T02:59:18;21.90;50.60
20005;DHT22;69160;45.498;-73.582;2023-05-09T03:01:45;21.90;50.50
20005;DHT22;69160;45.498;-73.582;2023-05-09T03:04:11;21.90;50.60
20005;DHT22;69160;45.498;-73.582;2023-05-09T03:06:37;21.90;50.50
20005;DHT22;69160;45.498;-73.582;2023-05-09T03:09:03;21.90;50.60
20005;DHT22;69160;45.498;-73.582;2023-05-09T03:11:30;21.90;50.60
20005;DHT22;69160;45.498;-73.582;2023-05-09T03:13:56;21.90;50.60
20005;DHT22;69160;45.498;-73.582;2023-05-09T03:16:22;21.90;50.50
20005;DHT22;69160;45.498;-73.582;2023-05-09T03:18:48;21.90;50.60
20005;DHT22;69160;45.498;-73.582;2023-05-09T03:21:14;21.90;50.60
20005;DHT22;69160;45.498;-73.582;2023-05-09T03:23:41;21.90;50.60
20005;DHT22;69160;45.498;-73.582;2023-05-09T03:26:07;21.90;50.60
20005;DHT22;69160;45.498;-73.582;2023-05-09T03:28:33;21.90;51.20
20005;DHT22;69160;45.498;-73.582;2023-05-09T03:30:59;21.90;50.60
20005;DHT22;69160;45.498;-73.582;2023-05-09T03:33:25;21.90;50.60
20005;DHT22;69160;45.498;-73.582;2023-05-09T03:35:51;21.90;50.70
20005;DHT22;69160;45.498;-73.582;2023-05-09T03:38:17;21.90;50.70
20005;DHT22;69160;45.498;-73.582;2023-05-09T03:40:44;21.90;50.70
20005;DHT22;69160;45.498;-73.582;2023-05-09T03:43:10;21.90;50.70
20005;DHT22;69160;45.498;-73.582;2023-05-09T03:45:36;21.90;50.80
20005;DHT22;69160;45.498;-73.582;2023-05-09T03:48:03;21.90;50.70
20005;DHT22;69160;45.498;-73.582;2023-05-09T03:50:33;21.90;50.80
20005;DHT22;69160;45.498;-73.582;2023-05-09T03:52:59;21.90;50.80
20005;DHT22;69160;45.498;-73.582;2023-05-09T03:55:25;21.90;50.70
20005;DHT22;69160;45.498;-73.582;2023-05-09T03:57:51;21.90;50.70
20005;DHT22;69160;45.498;-73.582;2023-05-09T04:00:17;21.90;50.80
20005;DHT22;69160;45.498;-73.582;2023-05-09T04:02:44;21.90;50.70
20005;DHT22;69160;45.498;-73.582;2023-05-09T04:05:10;21.90;50.80
20005;DHT22;69160;45.498;-73.582;2023-05-09T04:07:36;21.90;50.70
20005;DHT22;69160;45.498;-73.582;2023-05-09T04:10:03;21.90;50.80
20005;DHT22;69160;45.498;-73.582;2023-05-09T04:12:29;21.90;50.80
20005;DHT22;69160;45.498;-73.582;2023-05-09T04:14:55;21.90;50.80
20005;DHT22;69160;45.498;-73.582;2023-05-09T04:17:21;21.90;50.70
20005;DHT22;69160;45.498;-73.582;2023-05-09T04:19:47;21.90;50.80
20005;DHT22;69160;45.498;-73.582;2023-05-09T04:22:13;21.90;50.70
20005;DHT22;69160;45.498;-73.582;2023-05-09T04:24:39;21.90;50.70
20005;DHT22;69160;45.498;-73.582;2023-05-09T04:27:06;21.90;50.70
20005;DHT22;69160;45.498;-73.582;2023-05-09T04:29:32;21.90;50.70
20005;DHT22;69160;45.498;-73.582;2023-05-09T04:32:00;21.90;50.60
20005;DHT22;69160;45.498;-73.582;2023-05-09T04:34:27;21.90;51.20
20005;DHT22;69160;45.498;-73.582;2023-05-09T04:36:54;21.80;50.60
20005;DHT22;69160;45.498;-73.582;2023-05-09T04:39:21;21.90;50.70
20005;DHT22;69160;45.498;-73.582;2023-05-09T04:41:47;21.80;50.70
20005;DHT22;69160;45.498;-73.582;2023-05-09T04:44:15;21.80;50.70
20005;DHT22;69160;45.498;-73.582;2023-05-09T04:46:42;21.90;50.70
20005;DHT22;69160;45.498;-73.582;2023-05-09T04:49:08;21.80;50.60
20005;DHT22;69160;45.498;-73.582;2023-05-09T04:51:34;21.90;50.70
20005;DHT22;69160;45.498;-73.582;2023-05-09T04:54:00;21.80;50.70
20005;DHT22;69160;45.498;-73.582;2023-05-09T04:56:26;21.90;50.70
20005;DHT22;69160;45.498;-73.582;2023-05-09T04:58:53;21.90;50.70
20005;DHT22;69160;45.498;-73.582;2023-05-09T05:01:19;21.80;50.60
20005;DHT22;69160;45.498;-73.582;2023-05-09T05:03:45;21.80;50.60
20005;DHT22;69160;45.498;-73.582;2023-05-09T05:06:11;21.80;50.60
20005;DHT22;69160;45.498;-73.582;2023-05-09T05:08:37;21.80;50.60
20005;DHT22;69160;45.498;-73.582;2023-05-09T05:11:03;21.80;50.60
20005;DHT22;69160;45.498;-73.582;2023-05-09T05:13:30;21.80;50.50
20005;DHT22;69160;45.498;-73.582;2023-05-09T05:15:56;21.90;50.70
20005;DHT22;69160;45.498;-73.582;2023-05-09T05:18:23;21.80;50.60
20005;DHT22;69160;45.498;-73.582;2023-05-09T05:20:49;21.80;50.60
20005;DHT22;69160;45.498;-73.582;2023-05-09T05:23:15;21.80;50.50
20005;DHT22;69160;45.498;-73.582;2023-05-09T05:25:41;21.80;50.50
20005;DHT22;69160;45.498;-73.582;2023-05-09T05:28:07;21.80;50.60
20005;DHT22;69160;45.498;-73.582;2023-05-09T05:30:34;21.80;50.50
20005;DHT22;69160;45.498;-73.582;2023-05-09T05:33:00;21.80;50.60
20005;DHT22;69160;45.498;-73.582;2023-05-09T05:35:26;21.80;50.50
20005;DHT22;69160;45.498;-73.582;2023-05-09T05:37:53;21.80;50.50
20005;DHT22;69160;45.498;-73.582;2023-05-09T05:40:19;21.80;50.50
20005;DHT22;69160;45.498;-73.582;2023-05-09T05:42:45;21.80;50.40
20005;DHT22;69160;45.498;-73.582;2023-05-09T05:45:12;21.80;50.50
20005;DHT22;69160;45.498;-73.582;2023-05-09T05:47:38;21.80;50.50
20005;DHT22;69160;45.498;-73.582;2023-05-09T05:50:05;21.80;50.60
20005;DHT22;69160;45.498;-73.582;2023-05-09T05:52:33;21.80;50.50
20005;DHT22;69160;45.498;-73.582;2023-05-09T05:54:59;21.80;50.50
20005;DHT22;69160;45.498;-73.582;2023-05-09T05:57:25;21.80;50.60
20005;DHT22;69160;45.498;-73.582;2023-05-09T05:59:51;21.80;50.60
20005;DHT22;69160;45.498;-73.582;2023-05-09T06:02:17;21.80;50.50
20005;DHT22;69160;45.498;-73.582;2023-05-09T06:04:43;21.80;50.40
20005;DHT22;69160;45.498;-73.582;2023-05-09T06:07:10;21.80;50.40
20005;DHT22;69160;45.498;-73.582;2023-05-09T06:09:37;21.80;50.40
20005;DHT22;69160;45.498;-73.582;2023-05-09T06:12:04;21.80;50.30
20005;DHT22;69160;45.498;-73.582;2023-05-09T06:14:31;21.80;50.30
20005;DHT22;69160;45.498;-73.582;2023-05-09T06:17:00;21.80;50.30
20005;DHT22;69160;45.498;-73.582;2023-05-09T06:19:26;21.80;50.30
20005;DHT22;69160;45.498;-73.582;2023-05-09T06:21:52;21.80;50.30
20005;DHT22;69160;45.498;-73.582;2023-05-09T06:24:18;21.80;50.30
20005;DHT22;69160;45.498;-73.582;2023-05-09T06:26:44;21.70;50.20
20005;DHT22;69160;45.498;-73.582;2023-05-09T06:29:11;21.70;50.20
20005;DHT22;69160;45.498;-73.582;2023-05-09T06:31:38;21.80;50.30
20005;DHT22;69160;45.498;-73.582;2023-05-09T06:34:05;21.80;50.30
20005;DHT22;69160;45.498;-73.582;2023-05-09T06:36:32;21.80;50.30
20005;DHT22;69160;45.498;-73.582;2023-05-09T06:38:58;21.70;50.20
20005;DHT22;69160;45.498;-73.582;2023-05-09T06:41:25;21.70;50.20
20005;DHT22;69160;45.498;-73.582;2023-05-09T06:43:51;21.70;50.20
20005;DHT22;69160;45.498;-73.582;2023-05-09T06:46:18;21.70;50.30
20005;DHT22;69160;45.498;-73.582;2023-05-09T06:48:44;21.70;50.20
20005;DHT22;69160;45.498;-73.582;2023-05-09T06:51:10;21.70;50.20
20005;DHT22;69160;45.498;-73.582;2023-05-09T06:53:36;21.70;50.20
20005;DHT22;69160;45.498;-73.582;2023-05-09T06:56:03;21.80;50.20
20005;DHT22;69160;45.498;-73.582;2023-05-09T06:58:29;21.70;50.20
20005;DHT22;69160;45.498;-73.582;2023-05-09T07:00:56;21.70;50.20
20005;DHT22;69160;45.498;-73.582;2023-05-09T07:03:22;21.70;50.20
20005;DHT22;69160;45.498;-73.582;2023-05-09T07:05:48;21.70;50.20
20005;DHT22;69160;45.498;-73.582;2023-05-09T07:08:14;21.70;50.20
20005;DHT22;69160;45.498;-73.582;2023-05-09T07:10:40;21.80;50.20
20005;DHT22;69160;45.498;-73.582;2023-05-09T07:13:06;21.80;50.20
20005;DHT22;69160;45.498;-73.582;2023-05-09T07:15:32;21.70;50.20
20005;DHT22;69160;45.498;-73.582;2023-05-09T07:17:58;21.70;50.10
20005;DHT22;69160;45.498;-73.582;2023-05-09T07:20:25;21.70;50.10
20005;DHT22;69160;45.498;-73.582;2023-05-09T07:22:51;21.70;50.10
20005;DHT22;69160;45.498;-73.582;2023-05-09T07:25:17;21.70;50.10
20005;DHT22;69160;45.498;-73.582;2023-05-09T07:27:43;21.70;50.10
20005;DHT22;69160;45.498;-73.582;2023-05-09T07:30:09;21.70;50.10
20005;DHT22;69160;45.498;-73.582;2023-05-09T07:32:36;21.70;50.20
20005;DHT22;69160;45.498;-73.582;2023-05-09T07:35:02;21.70;50.10
20005;DHT22;69160;45.498;-73.582;2023-05-09T07:37:28;21.70;50.10
20005;DHT22;69160;45.498;-73.582;2023-05-09T07:39:54;21.70;50.20
20005;DHT22;69160;45.498;-73.582;2023-05-09T07:42:20;21.70;50.20
20005;DHT22;69160;45.498;-73.582;2023-05-09T07:44:47;21.70;50.20
20005;DHT22;69160;45.498;-73.582;2023-05-09T07:47:13;21.70;50.20
20005;DHT22;69160;45.498;-73.582;2023-05-09T07:49:39;21.70;50.20
20005;DHT22;69160;45.498;-73.582;2023-05-09T07:52:07;21.70;50.30
20005;DHT22;69160;45.498;-73.582;2023-05-09T07:54:34;21.70;50.20
20005;DHT22;69160;45.498;-73.582;2023-05-09T07:57:00;21.70;50.20
20005;DHT22;69160;45.498;-73.582;2023-05-09T07:59:26;21.70;50.20
20005;DHT22;69160;45.498;-73.582;2023-05-09T08:01:52;21.70;50.10
20005;DHT22;69160;45.498;-73.582;2023-05-09T08:04:18;21.70;50.20
20005;DHT22;69160;45.498;-73.582;2023-05-09T08:06:44;21.70;50.20
20005;DHT22;69160;45.498;-73.582;2023-05-09T08:09:10;21.70;50.20
20005;DHT22;69160;45.498;-73.582;2023-05-09T08:11:37;21.70;50.20
20005;DHT22;69160;45.498;-73.582;2023-05-09T08:14:03;21.70;50.20
20005;DHT22;69160;45.498;-73.582;2023-05-09T08:16:29;21.60;50.10
20005;DHT22;69160;45.498;-73.582;2023-05-09T08:18:55;21.60;50.10
20005;DHT22;69160;45.498;-73.582;2023-05-09T08:21:21;21.70;50.80
20005;DHT22;69160;45.498;-73.582;2023-05-09T08:23:47;21.70;50.20
20005;DHT22;69160;45.498;-73.582;2023-05-09T08:26:13;21.70;50.10
20005;DHT22;69160;45.498;-73.582;2023-05-09T08:28:39;21.70;50.20
20005;DHT22;69160;45.498;-73.582;2023-05-09T08:31:06;21.70;50.10
20005;DHT22;69160;45.498;-73.582;2023-05-09T08:33:32;21.70;50.20
20005;DHT22;69160;45.498;-73.582;2023-05-09T08:35:58;21.70;50.20
20005;DHT22;69160;45.498;-73.582;2023-05-09T08:38:24;21.70;50.20
20005;DHT22;69160;45.498;-73.582;2023-05-09T08:40:50;21.70;50.20
20005;DHT22;69160;45.498;-73.582;2023-05-09T08:43:16;21.70;50.20
20005;DHT22;69160;45.498;-73.582;2023-05-09T08:45:51;21.70;50.20
20005;DHT22;69160;45.498;-73.582;2023-05-09T08:48:20;21.70;50.20
20005;DHT22;69160;45.498;-73.582;2023-05-09T08:50:47;21.70;50.10
20005;DHT22;69160;45.498;-73.582;2023-05-09T08:53:14;21.70;50.20
20005;DHT22;69160;45.498;-73.582;2023-05-09T08:55:40;21.60;50.20
20005;DHT22;69160;45.498;-73.582;2023-05-09T08:58:07;21.60;50.10
20005;DHT22;69160;45.498;-73.582;2023-05-09T09:00:36;21.60;50.20
20005;DHT22;69160;45.498;-73.582;2023-05-09T09:03:05;21.60;50.20
20005;DHT22;69160;45.498;-73.582;2023-05-09T09:05:41;21.60;50.20
20005;DHT22;69160;45.498;-73.582;2023-05-09T09:08:08;21.60;50.10
20005;DHT22;69160;45.498;-73.582;2023-05-09T09:10:39;21.60;50.20
20005;DHT22;69160;45.498;-73.582;2023-05-09T09:13:09;21.60;50.20
20005;DHT22;69160;45.498;-73.582;2023-05-09T09:15:36;21.60;50.20
20005;DHT22;69160;45.498;-73.582;2023-05-09T09:18:08;21.60;50.20
20005;DHT22;69160;45.498;-73.582;2023-05-09T09:20:44;21.60;50.20
20005;DHT22;69160;45.498;-73.582;2023-05-09T09:23:11;21.60;50.20
20005;DHT22;69160;45.498;-73.582;2023-05-09T09:25:37;21.60;50.30
20005;DHT22;69160;45.498;-73.582;2023-05-09T09:28:04;21.60;50.30
20005;DHT22;69160;45.498;-73.582;2023-05-09T09:30:30;21.60;50.30
20005;DHT22;69160;45.498;-73.582;2023-05-09T09:32:59;21.60;50.30
20005;DHT22;69160;45.498;-73.582;2023-05-09T09:35:26;21.60;50.30
20005;DHT22;69160;45.498;-73.582;2023-05-09T09:37:56;21.60;50.30
20005;DHT22;69160;45.498;-73.582;2023-05-09T09:40:24;21.60;50.30
20005;DHT22;69160;45.498;-73.582;2023-05-09T09:42:50;21.60;50.30
20005;DHT22;69160;45.498;-73.582;2023-05-09T09:45:18;21.60;50.30
20005;DHT22;69160;45.498;-73.582;2023-05-09T09:47:46;21.60;50.30
20005;DHT22;69160;45.498;-73.582;2023-05-09T09:50:14;21.60;50.30
20005;DHT22;69160;45.498;-73.582;2023-05-09T09:55:15;21.60;50.30
20005;DHT22;69160;45.498;-73.582;2023-05-09T09:57:41;21.60;50.30
20005;DHT22;69160;45.498;-73.582;2023-05-09T10:00:11;21.60;50.30
20005;DHT22;69160;45.498;-73.582;2023-05-09T10:02:49;21.60;50.30
20005;DHT22;69160;45.498;-73.582;2023-05-09T10:07:50;21.60;50.40
20005;DHT22;69160;45.498;-73.582;2023-05-09T10:10:17;21.60;50.40
20005;DHT22;69160;45.498;-73.582;2023-05-09T10:12:44;21.60;50.40
20005;DHT22;69160;45.498;-73.582;2023-05-09T10:15:11;21.60;50.40
20005;DHT22;69160;45.498;-73.582;2023-05-09T10:17:41;21.60;50.40
20005;DHT22;69160;45.498;-73.582;2023-05-09T10:20:08;21.50;50.30
20005;DHT22;69160;45.498;-73.582;2023-05-09T10:22:38;21.60;50.40
20005;DHT22;69160;45.498;-73.582;2023-05-09T10:25:07;21.60;51.00
20005;DHT22;69160;45.498;-73.582;2023-05-09T10:27:40;21.50;50.30
20005;DHT22;69160;45.498;-73.582;2023-05-09T10:30:08;21.50;50.40
20005;DHT22;69160;45.498;-73.582;2023-05-09T10:35:16;21.60;50.40
20005;DHT22;69160;45.498;-73.582;2023-05-09T10:37:43;21.60;50.40
20005;DHT22;69160;45.498;-73.582;2023-05-09T10:40:10;21.50;50.40
20005;DHT22;69160;45.498;-73.582;2023-05-09T10:42:43;21.50;50.40
20005;DHT22;69160;45.498;-73.582;2023-05-09T10:45:10;21.50;50.40
20005;DHT22;69160;45.498;-73.582;2023-05-09T10:47:41;21.50;50.40
20005;DHT22;69160;45.498;-73.582;2023-05-09T10:50:10;21.60;50.50
20005;DHT22;69160;45.498;-73.582;2023-05-09T10:58:35;21.50;50.50
20005;DHT22;69160;45.498;-73.582;2023-05-09T11:01:04;21.50;50.40
20005;DHT22;69160;45.498;-73.582;2023-05-09T11:09:24;21.50;50.40
20005;DHT22;69160;45.498;-73.582;2023-05-09T11:11:59;21.50;50.40
20005;DHT22;69160;45.498;-73.582;2023-05-09T11:14:51;21.50;50.50
20005;DHT22;69160;45.498;-73.582;2023-05-09T11:24:48;21.50;50.50
20005;DHT22;69160;45.498;-73.582;2023-05-09T11:27:25;21.60;50.50
20005;DHT22;69160;45.498;-73.582;2023-05-09T11:29:58;21.50;50.40
20005;DHT22;69160;45.498;-73.582;2023-05-09T11:32:34;21.50;50.50
20005;DHT22;69160;45.498;-73.582;2023-05-09T11:35:16;21.50;50.40
20005;DHT22;69160;45.498;-73.582;2023-05-09T11:37:51;21.50;50.50
20005;DHT22;69160;45.498;-73.582;2023-05-09T11:40:20;21.50;50.50
20005;DHT22;69160;45.498;-73.582;2023-05-09T11:42:49;21.50;50.40
20005;DHT22;69160;45.498;-73.582;2023-05-09T11:45:18;21.50;50.40
20005;DHT22;69160;45.498;-73.582;2023-05-09T11:47:49;21.50;50.40
20005;DHT22;69160;45.498;-73.582;2023-05-09T11:50:16;21.50;50.40
20005;DHT22;69160;45.498;-73.582;2023-05-09T11:52:44;21.50;50.40
20005;DHT22;69160;45.498;-73.582;2023-05-09T11:55:20;21.50;50.40
20005;DHT22;69160;45.498;-73.582;2023-05-09T11:57:52;21.50;50.40
20005;DHT22;69160;45.498;-73.582;2023-05-09T12:00:25;21.50;50.40
20005;DHT22;69160;45.498;-73.582;2023-05-09T12:02:51;21.50;50.40
20005;DHT22;69160;45.498;-73.582;2023-05-09T12:05:19;21.50;50.40
20005;DHT22;69160;45.498;-73.582;2023-05-09T12:07:46;21.50;50.40
20005;DHT22;69160;45.498;-73.582;2023-05-09T12:10:15;21.50;50.40
20005;DHT22;69160;45.498;-73.582;2023-05-09T12:12:52;21.50;50.40
20005;DHT22;69160;45.498;-73.582;2023-05-09T12:15:21;21.50;50.50
20005;DHT22;69160;45.498;-73.582;2023-05-09T12:18:00;21.50;50.60
20005;DHT22;69160;45.498;-73.582;2023-05-09T12:20:38;21.50;50.50
20005;DHT22;69160;45.498;-73.582;2023-05-09T12:23:04;21.60;50.70
20005;DHT22;69160;45.498;-73.582;2023-05-09T12:25:30;21.60;50.80
20005;DHT22;69160;45.498;-73.582;2023-05-09T12:27:56;21.60;51.10
20005;DHT22;69160;45.498;-73.582;2023-05-09T12:30:23;21.60;51.10
20005;DHT22;69160;45.498;-73.582;2023-05-09T12:32:49;21.60;51.00
20005;DHT22;69160;45.498;-73.582;2023-05-09T12:35:15;21.60;51.30
20005;DHT22;69160;45.498;-73.582;2023-05-09T12:37:54;21.60;51.00
20005;DHT22;69160;45.498;-73.582;2023-05-09T12:40:21;21.60;51.70
20005;DHT22;69160;45.498;-73.582;2023-05-09T12:42:47;21.60;51.20
20005;DHT22;69160;45.498;-73.582;2023-05-09T12:45:13;21.60;51.10
20005;DHT22;69160;45.498;-73.582;2023-05-09T12:47:40;21.60;51.10
20005;DHT22;69160;45.498;-73.582;2023-05-09T12:50:10;21.60;51.10
20005;DHT22;69160;45.498;-73.582;2023-05-09T12:52:40;21.60;51.10
20005;DHT22;69160;45.498;-73.582;2023-05-09T12:55:09;21.60;51.20
20005;DHT22;69160;45.498;-73.582;2023-05-09T12:57:36;21.60;51.60
20005;DHT22;69160;45.498;-73.582;2023-05-09T13:00:05;21.60;52.20
20005;DHT22;69160;45.498;-73.582;2023-05-09T13:02:39;21.60;51.50
20005;DHT22;69160;45.498;-73.582;2023-05-09T13:07:40;21.60;51.90
20005;DHT22;69160;45.498;-73.582;2023-05-09T13:10:23;21.60;52.70
20005;DHT22;69160;45.498;-73.582;2023-05-09T13:12:51;21.60;52.10
20005;DHT22;69160;45.498;-73.582;2023-05-09T13:15:20;21.60;52.00
20005;DHT22;69160;45.498;-73.582;2023-05-09T13:17:50;21.60;52.10
20005;DHT22;69160;45.498;-73.582;2023-05-09T13:20:17;21.60;52.00
20005;DHT22;69160;45.498;-73.582;2023-05-09T13:22:44;21.60;52.20
20005;DHT22;69160;45.498;-73.582;2023-05-09T13:25:10;21.60;52.40
20005;DHT22;69160;45.498;-73.582;2023-05-09T13:27:37;21.60;52.30
20005;DHT22;69160;45.498;-73.582;2023-05-09T13:30:04;21.60;52.30
20005;DHT22;69160;45.498;-73.582;2023-05-09T13:32:33;21.60;52.30
20005;DHT22;69160;45.498;-73.582;2023-05-09T13:34:59;21.60;52.30
20005;DHT22;69160;45.498;-73.582;2023-05-09T13:37:26;21.60;52.40
20005;DHT22;69160;45.498;-73.582;2023-05-09T13:39:52;21.60;52.50
20005;DHT22;69160;45.498;-73.582;2023-05-09T13:42:19;21.60;52.60
20005;DHT22;69160;45.498;-73.582;2023-05-09T13:44:45;21.60;52.50
20005;DHT22;69160;45.498;-73.582;2023-05-09T13:47:11;21.60;52.60
20005;DHT22;69160;45.498;-73.582;2023-05-09T13:49:37;21.60;52.60
20005;DHT22;69160;45.498;-73.582;2023-05-09T13:52:04;21.60;52.60
20005;DHT22;69160;45.498;-73.582;2023-05-09T13:54:31;21.60;52.60
20005;DHT22;69160;45.498;-73.582;2023-05-09T13:57:04;21.60;52.60
20005;DHT22;69160;45.498;-73.582;2023-05-09T13:59:30;21.60;52.70
20005;DHT22;69160;45.498;-73.582;2023-05-09T14:02:00;21.60;52.60
20005;DHT22;69160;45.498;-73.582;2023-05-09T14:04:27;21.60;52.50
20005;DHT22;69160;45.498;-73.582;2023-05-09T14:06:54;21.60;52.60
20005;DHT22;69160;45.498;-73.582;2023-05-09T14:09:21;21.50;52.40
20005;DHT22;69160;45.498;-73.582;2023-05-09T14:11:51;21.60;52.50
20005;DHT22;69160;45.498;-73.582;2023-05-09T14:14:18;21.60;52.40
20005;DHT22;69160;45.498;-73.582;2023-05-09T14:16:45;21.60;52.40
20005;DHT22;69160;45.498;-73.582;2023-05-09T14:19:11;21.60;52.40
20005;DHT22;69160;45.498;-73.582;2023-05-09T14:21:40;21.60;52.40
20005;DHT22;69160;45.498;-73.582;2023-05-09T14:24:11;21.60;52.30
20005;DHT22;69160;45.498;-73.582;2023-05-09T14:26:38;21.60;52.40
20005;DHT22;69160;45.498;-73.582;2023-05-09T14:29:05;21.60;52.30
20005;DHT22;69160;45.498;-73.582;2023-05-09T14:31:31;21.60;52.20
20005;DHT22;69160;45.498;-73.582;2023-05-09T14:33:58;21.60;51.80
20005;DHT22;69160;45.498;-73.582;2023-05-09T14:36:29;21.60;51.90
20005;DHT22;69160;45.498;-73.582;2023-05-09T14:38:57;21.60;51.80
20005;DHT22;69160;45.498;-73.582;2023-05-09T14:41:23;21.60;51.80
20005;DHT22;69160;45.498;-73.582;2023-05-09T14:43:50;21.70;51.90
20005;DHT22;69160;45.498;-73.582;2023-05-09T14:46:17;21.70;51.80
20005;DHT22;69160;45.498;-73.582;2023-05-09T14:48:43;21.70;51.70
20005;DHT22;69160;45.498;-73.582;2023-05-09T14:51:09;21.70;51.80
20005;DHT22;69160;45.498;-73.582;2023-05-09T14:53:36;21.70;51.90
20005;DHT22;69160;45.498;-73.582;2023-05-09T14:56:05;21.70;52.00
20005;DHT22;69160;45.498;-73.582;2023-05-09T14:58:32;21.70;52.00
20005;DHT22;69160;45.498;-73.582;2023-05-09T15:01:01;21.70;52.20
20005;DHT22;69160;45.498;-73.582;2023-05-09T15:03:27;21.70;52.10
20005;DHT22;69160;45.498;-73.582;2023-05-09T15:05:54;21.70;52.20
20005;DHT22;69160;45.498;-73.582;2023-05-09T15:08:20;21.70;52.40
20005;DHT22;69160;45.498;-73.582;2023-05-09T15:10:46;21.70;52.50
20005;DHT22;69160;45.498;-73.582;2023-05-09T15:13:16;21.70;52.90
20005;DHT22;69160;45.498;-73.582;2023-05-09T15:15:42;21.80;53.20
20005;DHT22;69160;45.498;-73.582;2023-05-09T15:18:08;21.80;53.00
20005;DHT22;69160;45.498;-73.582;2023-05-09T15:20:35;21.70;52.00
20005;DHT22;69160;45.498;-73.582;2023-05-09T15:23:02;21.50;48.60
20005;DHT22;69160;45.498;-73.582;2023-05-09T15:25:28;21.30;46.90
20005;DHT22;69160;45.498;-73.582;2023-05-09T15:27:54;21.20;45.70
20005;DHT22;69160;45.498;-73.582;2023-05-09T15:30:21;21.00;43.70
20005;DHT22;69160;45.498;-73.582;2023-05-09T15:32:47;20.90;43.80
20005;DHT22;69160;45.498;-73.582;2023-05-09T15:35:13;20.90;44.00
20005;DHT22;69160;45.498;-73.582;2023-05-09T15:37:40;20.80;43.90
20005;DHT22;69160;45.498;-73.582;2023-05-09T15:40:08;20.80;44.60
20005;DHT22;69160;45.498;-73.582;2023-05-09T15:42:34;20.70;45.40
20005;DHT22;69160;45.498;-73.582;2023-05-09T15:45:01;20.70;48.80